Time;durP1;ratioP1;P1;durP2;ratioP2;P2;SDS_P1;SDS_P2;PMS_P1;PMS_P2;Temp;Humidity;BMP_temperature;BMP_pressure;BME280_temperature;BME280_humidity;BME280_pressure;Samples;Min_cycle;Max_cycle;Signal;HPM_P1;HPM_P2
2022/08/26 05:04:32;;;;;;;18.20;5.70;;;;;;;16.93;69.47;100667.55;104513;1285;602573;-64
2022/08/26 05:07:01;;;;;;;13.40;5.60;;;;;;;17.04;68.62;100664.50;106320;1265;61799;-66
2022/08/26 05:09:30;;;;;;;17.30;6.00;;;;;;;17.23;67.98;100663.25;106218;1264;59099;-69
2022/08/26 05:11:59;;;;;;;18.10;5.60;;;;;;;17.40;67.53;100664.67;107084;1253;69618;-68
2022/08/26 05:14:28;;;;;;;20.20;6.80;;;;;;;17.55;66.89;100663.89;107160;1253;60893;-70
2022/08/26 05:16:57;;;;;;;22.90;6.60;;;;;;;17.70;66.32;100669.54;106349;1253;1423803;-70
2022/08/26 05:19:26;;;;;;;17.00;5.90;;;;;;;17.85;65.32;100669.42;107220;1250;62454;-72
2022/08/26 05:21:55;;;;;;;16.00;6.10;;;;;;;18.01;64.79;100669.18;107278;1251;58727;-62
2022/08/26 05:24:24;;;;;;;19.80;5.90;;;;;;;18.19;64.39;100669.08;107156;1251;58523;-70
2022/08/26 05:26:54;;;;;;;10.60;5.40;;;;;;;18.33;63.53;100670.20;107257;1252;60382;-69
2022/08/26 05:29:24;;;;;;;14.00;5.60;;;;;;;18.48;62.76;100674.85;107099;1253;72802;-69
2022/08/26 05:31:52;;;;;;;19.50;5.60;;;;;;;18.63;62.09;100674.13;107129;1252;61602;-66
2022/08/26 05:34:23;;;;;;;13.80;5.30;;;;;;;18.78;62.69;100674.26;107176;1252;63290;-68
2022/08/26 05:36:58;;;;;;;15.50;5.50;;;;;;;18.92;62.12;100668.02;107245;1251;59136;-71
2022/08/26 05:39:27;;;;;;;16.70;6.30;;;;;;;19.04;60.87;100665.06;107210;1253;61344;-72
2022/08/26 05:41:56;;;;;;;23.40;6.20;;;;;;;19.19;60.97;100661.70;107299;1251;72944;-71
2022/08/26 05:44:24;;;;;;;20.00;5.90;;;;;;;19.36;60.48;100657.04;107074;1253;72233;-71
2022/08/26 05:46:53;;;;;;;15.30;5.00;;;;;;;19.53;60.31;100659.37;107257;1251;59814;-70
2022/08/26 05:49:22;;;;;;;11.20;4.30;;;;;;;19.72;58.94;100659.50;107143;1251;62577;-71
2022/08/26 05:51:54;;;;;;;8.50;4.10;;;;;;;19.90;56.26;100657.90;107212;1251;60454;-70
2022/08/26 05:54:23;;;;;;;10.50;4.30;;;;;;;20.11;55.50;100663.30;107136;1251;60404;-70
2022/08/26 05:56:52;;;;;;;10.70;4.40;;;;;;;20.26;54.85;100654.27;107207;1253;72628;-70
2022/08/26 05:59:20;;;;;;;9.30;4.00;;;;;;;20.44;54.92;100659.83;107201;1251;72137;-71
2022/08/26 06:01:55;;;;;;;9.20;3.60;;;;;;;20.62;53.28;100657.66;107177;1251;68856;-70
2022/08/26 06:04:25;;;;;;;8.50;3.50;;;;;;;20.77;51.91;100654.87;107215;1250;74480;-70
2022/08/26 06:06:58;;;;;;;9.20;4.00;;;;;;;20.87;52.16;100659.08;107207;1250;59061;-74
2022/08/26 06:09:27;;;;;;;8.00;3.60;;;;;;;20.99;51.33;100654.86;107411;1250;60538;-73
2022/08/26 06:11:57;;;;;;;12.60;4.20;;;;;;;21.10;50.18;100656.08;107248;1250;73361;-66
2022/08/26 06:14:26;;;;;;;10.20;3.90;;;;;;;21.16;50.48;100657.25;107224;1250;62317;-69
2022/08/26 06:16:56;;;;;;;10.90;3.90;;;;;;;21.27;49.76;100657.51;107178;1250;60022;-70
2022/08/26 06:19:25;;;;;;;10.70;4.30;;;;;;;21.32;49.66;100657.27;107234;1250;62525;-69
2022/08/26 06:25:36;;;;;;;9.90;4.00;;;;;;;21.41;49.80;100655.45;107411;1250;59074;-69
2022/08/26 06:27:38;;;;;;;9.50;4.60;;;;;;;21.67;49.33;100655.77;107337;1253;62273;-69
2022/08/26 06:30:08;;;;;;;11.20;4.50;;;;;;;21.74;49.13;100648.95;107538;1250;73252;-75
2022/08/26 06:32:37;;;;;;;12.60;4.50;;;;;;;21.82;48.93;100655.46;107651;1250;60882;-74
2022/08/26 06:35:07;;;;;;;10.80;4.70;;;;;;;21.89;48.29;100655.64;107324;1251;63733;-70
2022/08/26 06:37:39;;;;;;;9.80;5.00;;;;;;;21.97;48.50;100660.71;107249;1250;57482;-68
2022/08/26 06:40:09;;;;;;;12.60;4.50;;;;;;;22.08;48.37;100662.94;107472;1250;60736;-74
2022/08/26 06:42:39;;;;;;;12.20;4.40;;;;;;;22.14;47.48;100662.96;107221;1250;73376;-74
2022/08/26 06:45:08;;;;;;;7.80;4.50;;;;;;;22.24;47.66;100660.41;107141;1253;62091;-73
2022/08/26 06:47:38;;;;;;;14.40;5.10;;;;;;;22.36;47.39;100660.70;107280;1253;60482;-73
2022/08/26 06:50:07;;;;;;;10.00;4.50;;;;;;;22.49;46.98;100659.69;107663;1250;74316;-76
2022/08/26 06:52:36;;;;;;;10.80;4.60;;;;;;;22.62;46.87;100658.59;107671;1250;59316;-70
2022/08/26 06:55:06;;;;;;;10.60;3.90;;;;;;;22.75;46.89;100659.80;107544;1250;60084;-74
2022/08/26 06:57:35;;;;;;;8.90;4.30;;;;;;;22.85;46.40;100655.60;107719;1250;72607;-72
2022/08/26 07:00:09;;;;;;;13.10;4.50;;;;;;;22.91;46.09;100649.19;107550;1250;72642;-73
2022/08/26 07:02:38;;;;;;;12.10;4.70;;;;;;;22.97;46.14;100641.17;107567;1251;59657;-77
2022/08/26 07:05:07;;;;;;;10.30;4.10;;;;;;;23.06;45.80;100636.65;107561;1250;72591;-79
2022/08/26 07:07:37;;;;;;;11.30;4.70;;;;;;;23.16;45.33;100633.60;107502;1250;58903;-71
2022/08/26 07:10:07;;;;;;;8.70;4.40;;;;;;;23.30;45.91;100629.27;107491;1250;61293;-73
2022/08/26 07:12:36;;;;;;;15.60;4.60;;;;;;;23.46;45.46;100627.05;107248;1250;72691;-71
2022/08/26 07:15:06;;;;;;;9.40;4.20;;;;;;;23.56;45.00;100625.55;107470;1250;62701;-71
2022/08/26 07:17:35;;;;;;;8.20;4.30;;;;;;;23.65;44.51;100618.39;107193;1250;59157;-71
2022/08/26 07:20:08;;;;;;;10.90;4.20;;;;;;;23.70;44.16;100619.73;107460;1250;70501;-70
2022/08/26 07:22:38;;;;;;;13.90;4.30;;;;;;;23.77;43.81;100616.11;107336;1253;59109;-69
2022/08/26 07:25:10;;;;;;;10.70;4.60;;;;;;;23.78;44.19;100612.87;106901;1251;60328;-70
2022/08/26 07:27:39;;;;;;;11.10;4.60;;;;;;;23.88;44.17;100605.33;107215;1250;62282;-74
2022/08/26 07:30:09;;;;;;;11.50;4.60;;;;;;;24.05;43.77;100604.27;107191;1250;60902;-71
2022/08/26 07:32:42;;;;;;;9.60;4.60;;;;;;;24.22;42.97;100602.20;107005;1251;59277;-70
2022/08/26 07:35:11;;;;;;;9.30;4.40;;;;;;;24.30;42.63;100599.52;107436;1250;73515;-71
2022/08/26 07:37:39;;;;;;;14.70;4.90;;;;;;;24.42;43.07;100597.23;107500;1250;57743;-76
2022/08/26 07:40:09;;;;;;;12.60;5.00;;;;;;;24.57;43.14;100599.15;107477;1250;57345;-74
2022/08/26 07:42:38;;;;;;;13.70;4.60;;;;;;;24.71;42.68;100594.95;107392;1250;63919;-72
2022/08/26 07:45:07;;;;;;;17.40;5.00;;;;;;;24.80;42.40;100592.94;107490;1250;61393;-72
2022/08/26 07:47:36;;;;;;;11.90;5.40;;;;;;;24.88;42.05;100596.36;107460;1252;60374;-72
2022/08/26 07:50:05;;;;;;;9.10;4.60;;;;;;;24.98;41.73;100597.52;107411;1250;62507;-73
2022/08/26 07:52:36;;;;;;;11.00;4.90;;;;;;;25.09;41.66;100595.59;107427;1250;59076;-73
2022/08/26 07:55:08;;;;;;;11.80;4.30;;;;;;;25.19;41.64;100595.13;107511;1249;58290;-72
2022/08/26 07:57:37;;;;;;;11.60;5.10;;;;;;;25.25;41.49;100590.70;107318;1252;62168;-72
2022/08/26 08:00:11;;;;;;;11.60;4.70;;;;;;;25.37;40.92;100592.98;107474;1250;61640;-71
2022/08/26 08:02:45;;;;;;;13.10;4.50;;;;;;;25.47;39.91;100590.11;107234;1250;69757;-70
2022/08/26 08:05:17;;;;;;;15.40;4.60;;;;;;;25.46;39.81;100589.45;107075;1251;62793;-70
2022/08/26 08:07:47;;;;;;;9.30;4.40;;;;;;;25.52;40.18;100583.55;106931;1254;60011;-70
2022/08/26 08:10:25;;;;;;;12.10;4.60;;;;;;;25.58;40.14;100575.24;106954;1251;61784;-71
2022/08/26 08:12:56;;;;;;;9.40;4.60;;;;;;;25.69;40.15;100571.13;107152;1253;73246;-71
2022/08/26 08:15:29;;;;;;;10.90;4.00;;;;;;;25.81;39.86;100573.27;107028;1251;71822;-70
2022/08/26 08:17:59;;;;;;;10.70;4.80;;;;;;;25.90;39.43;100564.38;107141;1252;61134;-70
2022/08/26 08:20:29;;;;;;;12.60;4.50;;;;;;;26.03;39.38;100557.09;107117;1251;63665;-72
2022/08/26 08:23:00;;;;;;;10.50;4.40;;;;;;;26.16;38.60;100559.96;106902;1253;57997;-71
2022/08/26 08:25:31;;;;;;;12.20;5.00;;;;;;;26.28;38.72;100564.20;107160;1253;61684;-69
2022/08/26 08:28:00;;;;;;;10.70;5.10;;;;;;;26.35;37.59;100561.08;107284;1253;72842;-70
2022/08/26 13:02:36;;;;;;;33.00;5.70;;;;;;;37.90;17.50;100356.73;104085;1289;602387;-72
2022/08/26 13:05:05;;;;;;;41.20;6.70;;;;;;;38.17;17.15;100350.45;107242;1256;57384;-76
2022/08/26 13:07:35;;;;;;;40.80;6.30;;;;;;;37.78;17.33;100344.73;107370;1257;60236;-72
2022/08/26 13:10:04;;;;;;;43.40;7.00;;;;;;;38.00;17.74;100334.25;107132;1257;63027;-71
2022/08/26 13:12:36;;;;;;;37.80;6.20;;;;;;;37.96;17.52;100340.77;107030;1257;61050;-72
2022/08/26 13:15:06;;;;;;;43.60;6.80;;;;;;;37.83;17.60;100343.52;105458;1255;2162104;-70
2022/08/26 13:17:35;;;;;;;37.20;6.10;;;;;;;37.50;17.95;100346.04;107049;1253;63175;-71
2022/08/26 13:20:05;;;;;;;38.10;5.60;;;;;;;37.80;17.83;100343.66;107045;1253;58909;-71
2022/08/26 13:22:33;;;;;;;54.60;7.10;;;;;;;37.28;18.28;100348.22;107161;1256;61264;-72
2022/08/26 13:25:03;;;;;;;58.50;8.80;;;;;;;37.48;18.10;100352.73;106956;1254;62083;-72
2022/08/26 13:27:31;;;;;;;63.40;7.20;;;;;;;37.85;17.82;100354.48;107036;1254;73495;-71
2022/08/26 13:30:00;;;;;;;54.90;8.20;;;;;;;38.09;17.45;100354.25;106992;1254;61960;-71
2022/08/26 13:32:31;;;;;;;66.70;9.50;;;;;;;37.92;17.43;100355.71;107002;1257;73868;-71
2022/08/26 13:35:00;;;;;;;61.70;8.90;;;;;;;37.98;17.52;100354.24;107013;1256;59156;-71
2022/08/26 13:37:33;;;;;;;65.00;7.90;;;;;;;37.78;17.75;100352.65;106850;1254;59003;-71
2022/08/26 13:40:05;;;;;;;56.60;9.00;;;;;;;37.46;18.11;100356.05;106917;1254;63136;-73
2022/08/26 13:42:34;;;;;;;54.80;7.80;;;;;;;37.20;18.90;100360.88;107161;1254;72564;-71
2022/08/26 13:45:04;;;;;;;58.10;7.60;;;;;;;37.10;18.84;100361.05;107154;1254;59992;-70
2022/08/26 13:47:33;;;;;;;55.20;7.80;;;;;;;36.79;19.05;100357.20;107170;1254;63325;-70
2022/08/26 13:50:04;;;;;;;52.50;8.30;;;;;;;36.73;19.25;100358.64;107169;1253;57501;-73
2022/08/26 13:52:33;;;;;;;45.20;9.00;;;;;;;36.70;19.39;100358.89;107331;1254;58034;-72
2022/08/26 13:55:02;;;;;;;51.10;7.30;;;;;;;36.44;19.96;100362.39;107163;1254;73297;-73
2022/08/26 13:57:31;;;;;;;58.70;8.50;;;;;;;36.82;19.75;100357.10;107171;1254;62042;-72
2022/08/26 14:00:00;;;;;;;50.70;8.50;;;;;;;36.58;19.84;100359.23;107073;1254;60048;-70
2022/08/26 14:02:36;;;;;;;44.70;7.60;;;;;;;36.99;19.85;100361.83;107309;1254;62458;-71
2022/08/26 14:05:07;;;;;;;59.70;8.50;;;;;;;37.05;19.72;100358.52;107127;1254;58301;-71
2022/08/26 14:07:35;;;;;;;53.10;7.90;;;;;;;36.88;19.34;100358.80;106846;1254;61396;-73
2022/08/26 14:10:06;;;;;;;53.40;7.40;;;;;;;36.73;19.35;100354.16;107278;1254;63206;-70
2022/08/26 14:12:34;;;;;;;56.30;8.90;;;;;;;36.47;19.98;100363.44;107072;1254;72857;-71
2022/08/26 14:15:03;;;;;;;63.80;9.20;;;;;;;36.55;19.39;100357.61;107181;1254;59659;-73
2022/08/26 14:17:32;;;;;;;54.30;7.80;;;;;;;36.40;19.69;100360.14;107318;1254;64406;-72
2022/08/26 14:20:03;;;;;;;66.10;8.40;;;;;;;36.56;19.71;100357.52;107390;1254;61274;-73
2022/08/26 14:22:32;;;;;;;62.40;7.90;;;;;;;36.50;19.60;100355.73;107311;1254;59096;-76
2022/08/26 14:25:01;;;;;;;75.20;9.00;;;;;;;36.50;19.67;100357.20;107042;1254;61366;-71
2022/08/26 14:27:30;;;;;;;61.60;8.40;;;;;;;37.15;18.95;100355.40;107018;1254;60885;-72
2022/08/26 14:29:58;;;;;;;66.10;9.60;;;;;;;37.60;18.55;100354.11;107288;1254;71023;-71
2022/08/26 14:32:28;;;;;;;70.50;8.10;;;;;;;37.57;18.59;100349.91;107154;1254;66226;-72
2022/08/26 14:34:57;;;;;;;65.00;9.00;;;;;;;37.22;18.61;100353.84;107150;1254;58981;-72
2022/08/26 14:37:26;;;;;;;63.30;9.10;;;;;;;36.45;19.52;100356.61;107372;1254;60035;-73
2022/08/26 14:39:55;;;;;;;74.60;8.60;;;;;;;36.13;19.74;100356.58;106995;1254;62790;-71
2022/08/26 14:42:29;;;;;;;77.10;9.60;;;;;;;35.74;20.28;100355.30;107293;1254;60849;-70
2022/08/26 14:45:02;;;;;;;68.70;9.60;;;;;;;35.38;20.42;100355.02;107153;1254;70543;-70
2022/08/26 14:47:31;;;;;;;58.00;9.10;;;;;;;35.09;20.94;100353.75;107413;1254;62763;-71
2022/08/26 14:50:00;;;;;;;59.00;8.20;;;;;;;34.90;20.88;100353.09;107381;1254;59081;-71
2022/08/26 14:54:10;;;;;;;75.90;8.80;;;;;;;35.04;20.84;100352.70;107213;1254;59222;-71
2022/08/26 14:55:17;;;;;;;74.10;8.60;;;;;;;34.82;21.28;100352.29;107062;1254;71869;-72
2022/08/26 14:57:47;;;;;;;59.70;7.50;;;;;;;34.61;21.37;100350.44;107053;1254;72926;-71
2022/08/26 15:00:17;;;;;;;61.50;8.30;;;;;;;34.76;21.61;100352.80;106993;1253;61281;-71
2022/08/26 15:02:46;;;;;;;66.10;8.20;;;;;;;34.75;21.80;100351.23;108653;1254;63952;-73
2022/08/26 15:05:15;;;;;;;73.20;8.80;;;;;;;34.61;22.10;100352.13;107205;1254;59028;-72
2022/08/26 15:07:44;;;;;;;59.40;8.00;;;;;;;34.38;22.38;100355.23;107035;1254;59073;-70
2022/08/26 15:10:15;;;;;;;64.00;8.60;;;;;;;34.31;22.80;100358.02;107058;1254;62186;-73
2022/08/26 15:12:45;;;;;;;76.70;9.80;;;;;;;34.09;22.86;100359.02;107050;1255;61653;-71
2022/08/26 15:15:17;;;;;;;54.70;9.00;;;;;;;33.78;23.48;100360.03;107080;1254;59195;-74
2022/08/26 15:17:46;;;;;;;69.40;9.70;;;;;;;33.69;23.64;100358.73;107069;1254;73923;-71
2022/08/26 15:20:16;;;;;;;57.50;9.60;;;;;;;33.69;23.38;100355.14;107241;1254;60867;-71
2022/08/26 15:22:45;;;;;;;72.90;9.10;;;;;;;33.85;23.40;100357.04;107106;1254;58950;-70
2022/08/26 15:25:16;;;;;;;72.50;10.00;;;;;;;33.83;23.65;100357.25;107147;1254;62914;-73
2022/08/26 15:27:45;;;;;;;59.60;9.00;;;;;;;34.02;23.42;100355.08;107232;1254;73590;-71
2022/08/26 15:30:15;;;;;;;65.70;8.50;;;;;;;33.80;23.60;100351.63;106979;1254;71003;-70
2022/08/26 15:32:44;;;;;;;71.70;9.30;;;;;;;33.86;23.49;100351.90;107080;1254;64033;-70
2022/08/26 15:35:13;;;;;;;61.20;8.80;;;;;;;33.66;23.83;100356.80;107062;1254;58911;-71
2022/08/26 15:37:42;;;;;;;66.00;9.10;;;;;;;33.63;23.96;100356.56;107158;1254;59094;-70
2022/08/26 15:40:11;;;;;;;62.70;8.60;;;;;;;33.52;24.23;100360.16;106930;1255;61421;-70
2022/08/26 15:42:40;;;;;;;75.10;9.30;;;;;;;33.55;24.15;100357.57;106765;1255;71784;-75
2022/08/26 15:45:10;;;;;;;56.40;8.80;;;;;;;33.42;23.91;100360.14;107020;1254;71104;-71
2022/08/26 15:47:52;;;;;;;74.60;9.90;;;;;;;33.44;24.41;100361.46;106982;1254;64036;-72
2022/08/26 15:50:52;;;;;;;67.90;8.90;;;;;;;33.48;24.62;100363.30;107069;1254;59134;-73
2022/08/26 15:53:23;;;;;;;63.60;9.00;;;;;;;33.37;24.74;100365.13;107113;1254;57443;-70
2022/08/26 15:55:56;;;;;;;57.70;8.10;;;;;;;33.34;24.85;100367.39;107006;1254;72796;-71
2022/08/26 15:58:27;;;;;;;66.40;8.40;;;;;;;33.19;24.77;100371.86;106904;1254;72247;-74
2022/08/26 16:00:56;;;;;;;72.70;12.10;;;;;;;32.96;25.31;100372.14;107092;1254;59801;-69
2022/08/26 16:03:25;;;;;;;73.10;8.80;;;;;;;32.88;25.26;100372.27;106861;1254;63265;-72
2022/08/26 16:05:54;;;;;;;72.00;8.30;;;;;;;32.79;25.19;100375.48;106915;1254;58862;-68
2022/08/26 16:08:23;;;;;;;62.70;8.70;;;;;;;32.60;25.66;100373.04;106978;1254;61926;-71
2022/08/26 16:10:56;;;;;;;62.70;8.20;;;;;;;32.51;25.65;100374.58;107065;1254;62651;-67
2022/08/26 16:13:25;;;;;;;62.60;8.60;;;;;;;32.49;25.71;100371.05;106965;1254;60880;-71
2022/08/26 16:16:07;;;;;;;65.80;9.40;;;;;;;32.42;25.62;100377.17;107150;1253;69886;-67
2022/08/26 16:18:36;;;;;;;61.00;8.90;;;;;;;32.28;25.94;100375.20;107104;1254;73251;-65
2022/08/26 16:21:06;;;;;;;59.50;7.80;;;;;;;32.12;26.41;100378.52;106914;1254;57473;-67
2022/08/26 16:23:41;;;;;;;57.00;8.10;;;;;;;31.88;26.82;100374.85;106908;1254;59079;-71
2022/08/26 16:26:21;;;;;;;54.80;8.80;;;;;;;31.69;27.34;100380.47;106919;1254;72013;-68
2022/08/26 16:28:51;;;;;;;70.00;11.50;;;;;;;31.51;27.55;100378.95;107012;1253;70254;-68
2022/08/26 16:31:21;;;;;;;65.70;9.70;;;;;;;31.32;27.70;100375.56;106838;1254;71116;-68
2022/08/26 16:33:50;;;;;;;60.40;8.50;;;;;;;31.19;28.09;100378.32;106826;1253;63670;-70
2022/08/26 16:36:19;;;;;;;75.90;10.40;;;;;;;31.03;28.59;100378.85;106882;1254;59062;-65
2022/08/26 16:38:55;;;;;;;64.30;10.30;;;;;;;30.89;28.68;100376.88;106939;1254;61125;-68
2022/08/26 16:41:28;;;;;;;77.40;10.90;;;;;;;30.75;29.05;100380.16;106875;1254;64685;-68
2022/08/26 16:43:57;;;;;;;62.60;11.10;;;;;;;30.55;29.45;100377.95;106710;1254;71782;-70
2022/08/26 16:46:27;;;;;;;55.40;9.70;;;;;;;30.40;29.91;100376.91;106929;1253;59497;-67
2022/08/26 16:48:57;;;;;;;58.00;9.70;;;;;;;30.24;30.34;100376.06;106943;1254;63081;-69
2022/08/26 16:51:27;;;;;;;78.60;14.20;;;;;;;30.10;30.70;100378.70;106934;1254;58965;-68
2022/08/26 16:53:57;;;;;;;66.60;13.00;;;;;;;29.93;31.12;100376.06;107047;1254;60657;-68
2022/08/26 16:56:29;;;;;;;62.60;12.30;;;;;;;29.79;31.61;100374.55;106759;1254;62730;-68
2022/08/26 16:59:04;;;;;;;62.60;11.40;;;;;;;29.67;32.09;100373.63;106667;1254;71496;-69
2022/08/26 17:01:33;;;;;;;65.00;9.40;;;;;;;29.54;32.40;100377.32;106777;1254;60100;-67
2022/08/26 17:04:03;;;;;;;58.80;10.60;;;;;;;29.40;32.71;100382.98;106549;1254;63299;-69
2022/08/26 17:06:32;;;;;;;67.70;9.80;;;;;;;29.24;33.03;100378.46;106934;1254;61274;-69
2022/08/26 17:09:01;;;;;;;57.10;9.50;;;;;;;29.10;33.44;100379.80;106587;1254;60984;-70
2022/08/26 17:11:30;;;;;;;75.20;9.70;;;;;;;28.90;33.96;100382.95;106888;1254;73225;-70
2022/08/26 17:13:59;;;;;;;56.80;9.10;;;;;;;28.71;34.32;100382.59;106869;1254;62249;-72
2022/08/26 17:16:28;;;;;;;65.40;10.00;;;;;;;28.56;34.91;100388.46;106769;1254;69729;-70
2022/08/26 17:18:59;;;;;;;74.70;9.80;;;;;;;28.41;35.27;100387.39;106852;1254;74817;-70
2022/08/26 17:21:28;;;;;;;72.40;12.00;;;;;;;28.27;35.65;100388.88;106670;1254;61871;-71
2022/08/26 17:23:57;;;;;;;55.80;10.30;;;;;;;28.11;35.84;100395.89;107046;1254;60745;-71
2022/08/26 17:26:26;;;;;;;69.70;9.50;;;;;;;27.99;36.31;100397.95;107148;1254;74842;-75
2022/08/26 17:28:55;;;;;;;64.10;9.30;;;;;;;27.85;36.89;100398.86;107379;1254;61350;-74
2022/08/26 17:31:25;;;;;;;79.00;10.70;;;;;;;27.72;37.12;100401.29;107078;1254;60158;-73
2022/08/26 17:33:54;;;;;;;64.70;9.20;;;;;;;27.59;37.30;100405.02;107237;1254;64286;-72
2022/08/26 17:36:25;;;;;;;62.70;9.90;;;;;;;27.47;37.84;100404.82;106897;1254;59046;-73
2022/08/26 17:38:57;;;;;;;64.40;9.90;;;;;;;27.36;38.09;100408.66;106999;1254;59107;-72
2022/08/26 17:41:26;;;;;;;71.30;9.90;;;;;;;27.22;38.99;100408.45;107250;1254;71074;-73
2022/08/26 17:43:55;;;;;;;63.10;9.20;;;;;;;27.12;39.14;100408.79;106996;1254;71327;-71
2022/08/26 17:46:24;;;;;;;62.50;9.20;;;;;;;27.03;39.20;100412.77;107000;1254;71345;-71
2022/08/26 17:48:54;;;;;;;61.10;8.70;;;;;;;26.92;39.28;100414.41;106926;1254;74278;-76
2022/08/26 17:51:22;;;;;;;67.10;10.70;;;;;;;26.85;39.92;100418.02;106949;1254;61594;-77
2022/08/26 17:53:52;;;;;;;54.00;8.40;;;;;;;26.75;40.43;100415.05;107219;1253;57521;-72
2022/08/26 17:56:26;;;;;;;59.30;9.40;;;;;;;26.68;40.52;100416.61;106830;1254;73694;-69
2022/08/26 17:58:58;;;;;;;48.90;8.00;;;;;;;26.55;40.54;100408.37;107135;1254;74061;-75
2022/08/26 18:01:31;;;;;;;58.10;10.30;;;;;;;26.51;41.16;100417.52;107346;1253;59771;-73
2022/08/26 18:04:02;;;;;;;64.30;8.60;;;;;;;26.43;40.94;100415.14;107204;1254;62485;-73
2022/08/26 18:06:32;;;;;;;49.30;8.70;;;;;;;26.35;41.02;100415.52;107046;1254;61734;-72
2022/08/26 18:09:00;;;;;;;57.60;7.70;;;;;;;26.27;41.19;100413.34;107230;1254;59026;-78
2022/08/26 18:11:30;;;;;;;62.90;8.30;;;;;;;26.21;42.18;100416.41;107323;1254;62168;-72
2022/08/26 18:13:59;;;;;;;55.40;9.20;;;;;;;26.10;43.06;100419.71;107125;1254;71327;-69
2022/08/26 18:16:30;;;;;;;53.50;8.20;;;;;;;26.01;43.73;100424.56;107102;1254;72354;-70
2022/08/26 18:18:59;;;;;;;49.70;8.50;;;;;;;25.89;44.70;100421.98;107113;1251;63008;-69
2022/08/26 18:21:28;;;;;;;51.60;8.50;;;;;;;25.76;45.06;100421.43;106920;1253;60506;-67
2022/08/26 18:23:58;;;;;;;52.30;8.40;;;;;;;25.63;45.75;100420.56;106864;1254;62740;-69
2022/08/26 18:26:34;;;;;;;50.90;9.20;;;;;;;25.50;46.24;100420.26;106953;1254;73525;-75
2022/08/26 18:29:05;;;;;;;53.40;7.80;;;;;;;25.34;46.48;100417.11;106973;1253;62093;-67
2022/08/26 18:31:34;;;;;;;61.70;9.60;;;;;;;25.22;46.81;100413.69;106740;1256;60053;-73
2022/08/26 18:34:04;;;;;;;49.00;7.90;;;;;;;25.14;47.37;100419.94;106838;1254;72415;-75
2022/08/26 18:36:36;;;;;;;49.30;8.30;;;;;;;25.03;47.83;100421.73;106950;1254;58969;-66
2022/08/26 18:39:07;;;;;;;51.90;8.30;;;;;;;24.92;47.89;100422.01;106785;1254;60446;-75
2022/08/26 18:41:47;;;;;;;60.00;9.10;;;;;;;24.83;48.55;100422.30;106921;1253;73649;-69
2022/08/26 18:44:20;;;;;;;52.20;8.90;;;;;;;24.63;49.31;100419.83;106985;1254;72201;-70
2022/08/26 18:46:50;;;;;;;42.90;7.10;;;;;;;24.55;48.74;100419.45;106974;1254;71181;-70
2022/08/26 18:49:20;;;;;;;45.90;8.10;;;;;;;24.48;49.12;100420.47;107408;1251;63643;-70
2022/08/26 18:51:51;;;;;;;54.50;8.70;;;;;;;24.36;49.73;100421.14;107315;1252;58923;-69
2022/08/26 18:54:20;;;;;;;43.70;7.60;;;;;;;24.25;49.95;100421.54;107360;1250;60523;-73
2022/08/26 18:56:49;;;;;;;46.90;8.00;;;;;;;24.17;50.54;100421.80;107668;1250;64513;-76
2022/08/26 18:59:18;;;;;;;48.50;8.10;;;;;;;24.09;50.89;100421.27;107477;1251;60857;-71
2022/08/26 19:01:58;;;;;;;56.00;8.20;;;;;;;23.99;50.67;100420.65;107281;1253;60328;-72
2022/08/26 19:04:27;;;;;;;50.80;8.00;;;;;;;23.87;50.72;100416.88;106952;1251;73308;-78
2022/08/26 19:06:55;;;;;;;45.20;8.10;;;;;;;23.74;51.78;100418.27;107282;1253;61865;-70
2022/08/26 19:09:25;;;;;;;54.80;8.80;;;;;;;23.64;51.92;100422.14;107210;1251;62018;-73
2022/08/26 19:11:55;;;;;;;41.70;7.20;;;;;;;23.56;52.73;100420.47;107153;1253;63509;-73
2022/08/26 19:14:29;;;;;;;42.30;7.70;;;;;;;23.51;52.79;100425.05;107121;1251;71410;-73
2022/08/26 19:16:59;;;;;;;44.20;7.00;;;;;;;23.47;53.22;100429.77;107342;1251;60428;-73
2022/08/26 19:19:28;;;;;;;49.30;8.20;;;;;;;23.45;53.33;100432.38;106942;1253;73151;-75
2022/08/26 19:21:57;;;;;;;50.20;8.40;;;;;;;23.40;53.59;100433.56;107271;1251;59693;-72
2022/08/26 19:24:26;;;;;;;50.30;8.40;;;;;;;23.36;53.81;100433.14;107105;1253;61292;-72
2022/08/26 19:27:00;;;;;;;52.80;9.00;;;;;;;23.28;54.42;100429.52;107054;1251;74435;-73
2022/08/26 19:29:34;;;;;;;56.80;9.50;;;;;;;23.18;54.39;100435.27;106986;1251;71941;-74
2022/08/26 19:32:03;;;;;;;54.90;8.30;;;;;;;23.09;53.87;100439.77;107062;1253;71224;-72
2022/08/26 19:34:33;;;;;;;50.70;9.90;;;;;;;23.02;54.54;100436.64;107298;1251;74736;-73
2022/08/26 19:37:01;;;;;;;62.30;8.60;;;;;;;22.98;54.65;100433.34;107019;1252;62468;-72
2022/08/26 19:39:30;;;;;;;50.70;8.30;;;;;;;22.96;54.07;100432.38;107164;1251;59008;-74
2022/08/26 19:41:59;;;;;;;66.00;10.30;;;;;;;22.92;54.21;100428.81;107103;1251;72753;-73
2022/08/26 19:47:15;;;;;;;54.70;8.60;;;;;;;22.88;53.86;100428.52;106771;1253;60402;-69
2022/08/26 19:49:44;;;;;;;45.20;7.90;;;;;;;22.81;54.28;100428.06;107130;1251;73888;-73
2022/08/26 19:52:13;;;;;;;55.30;8.70;;;;;;;22.77;53.83;100427.71;106854;1253;57525;-73
2022/08/26 19:54:43;;;;;;;49.20;8.80;;;;;;;22.72;53.69;100429.95;107052;1253;60320;-74
2022/08/26 19:57:12;;;;;;;52.40;9.30;;;;;;;22.63;54.92;100427.89;107137;1254;65661;-73
2022/08/26 19:59:41;;;;;;;52.70;8.60;;;;;;;22.56;55.42;100429.94;107220;1251;63675;-73
2022/08/26 20:02:10;;;;;;;39.10;7.80;;;;;;;22.54;55.36;100428.08;106923;1251;69668;-73
2022/08/26 20:04:40;;;;;;;48.80;7.60;;;;;;;22.52;55.69;100430.93;107237;1251;73399;-73
2022/08/26 20:07:09;;;;;;;54.90;10.00;;;;;;;22.52;55.98;100432.94;107123;1251;61364;-72
2022/08/26 20:09:44;;;;;;;57.60;8.50;;;;;;;22.52;55.98;100430.40;107036;1251;60907;-73
2022/08/26 20:12:14;;;;;;;48.90;7.90;;;;;;;22.52;56.35;100432.40;107304;1251;73506;-72
2022/08/26 20:14:44;;;;;;;45.00;8.40;;;;;;;22.52;56.67;100436.70;107166;1251;61316;-71
2022/08/26 20:17:14;;;;;;;42.70;8.30;;;;;;;22.48;56.75;100437.67;107134;1251;70553;-72
2022/08/26 20:22:31;;;;;;;60.00;9.10;;;;;;;22.38;56.02;100436.66;106892;1253;59232;-71
2022/08/26 20:25:00;;;;;;;52.20;8.60;;;;;;;22.31;55.76;100438.13;107026;1251;57518;-71
2022/08/26 20:27:32;;;;;;;42.70;8.60;;;;;;;22.18;57.25;100436.31;106894;1253;63142;-73
2022/08/26 20:30:08;;;;;;;52.00;7.80;;;;;;;22.05;57.76;100441.13;107315;1251;71451;-76
2022/08/26 20:32:38;;;;;;;42.70;7.50;;;;;;;21.94;58.29;100438.82;107545;1251;61002;-80
2022/08/26 20:35:11;;;;;;;42.20;7.90;;;;;;;21.83;58.88;100438.16;107297;1253;63096;-81
2022/08/26 20:37:41;;;;;;;54.50;9.60;;;;;;;21.75;59.27;100431.24;107250;1253;59150;-79
2022/08/26 20:40:12;;;;;;;42.60;8.40;;;;;;;21.70;59.32;100436.06;107168;1251;61285;-79
2022/08/26 20:42:41;;;;;;;54.30;10.10;;;;;;;21.62;59.80;100433.58;107362;1251;63967;-81
2022/08/26 20:45:10;;;;;;;54.50;10.00;;;;;;;21.53;60.22;100432.95;107339;1253;61390;-82
2022/08/26 20:47:42;;;;;;;52.90;10.60;;;;;;;21.48;60.10;100438.70;107291;1253;59990;-80
2022/08/26 20:50:11;;;;;;;52.00;9.50;;;;;;;21.41;60.37;100441.81;107276;1250;73961;-78
2022/08/26 20:52:40;;;;;;;59.50;9.20;;;;;;;21.36;59.02;100444.88;107109;1253;61828;-80
2022/08/26 20:55:09;;;;;;;37.40;8.50;;;;;;;21.26;60.40;100447.58;107248;1250;57484;-81
2022/08/26 20:57:37;;;;;;;59.10;9.00;;;;;;;21.11;61.84;100446.80;107239;1250;73593;-81
2022/08/26 21:00:08;;;;;;;49.50;7.50;;;;;;;21.02;62.30;100447.13;107260;1251;61887;-75
2022/08/26 21:02:37;;;;;;;38.80;7.90;;;;;;;21.03;62.39;100448.93;107099;1251;70548;-79
2022/08/26 21:05:07;;;;;;;49.10;9.00;;;;;;;20.99;62.32;100448.83;107043;1251;74617;-75
2022/08/26 21:07:36;;;;;;;48.00;8.60;;;;;;;20.96;62.40;100451.17;107241;1251;61117;-80